sensor_id;sensor_type;location;lat;lon;timestamp;P1;durP1;ratioP1;P2;durP2;ratioP2
1204;SDS011;592;48.764;9.174;2023-05-07T00:01:37;9.60;;;5.40;;
1204;SDS011;592;48.764;9.174;2023-05-07T00:04:04;9.80;;;5.27;;
1204;SDS011;592;48.764;9.174;2023-05-07T00:06:33;11.63;;;5.30;;
1204;SDS011;592;48.764;9.174;2023-05-07T00:09:00;7.50;;;5.10;;
1204;SDS011;592;48.764;9.174;2023-05-07T00:11:28;7.23;;;5.40;;
1204;SDS011;592;48.764;9.174;2023-05-07T00:13:55;6.40;;;4.33;;
1204;SDS011;592;48.764;9.174;2023-05-07T00:16:21;7.80;;;4.87;;
1204;SDS011;592;48.764;9.174;2023-05-07T00:18:48;8.77;;;5.40;;
1204;SDS011;592;48.764;9.174;2023-05-07T00:21:15;6.17;;;4.60;;
1204;SDS011;592;48.764;9.174;2023-05-07T00:23:43;8.27;;;5.53;;
1204;SDS011;592;48.764;9.174;2023-05-07T00:26:10;8.10;;;5.87;;
1204;SDS011;592;48.764;9.174;2023-05-07T00:28:36;9.50;;;6.23;;
1204;SDS011;592;48.764;9.174;2023-05-07T00:31:03;7.03;;;4.80;;
1204;SDS011;592;48.764;9.174;2023-05-07T00:33:30;9.33;;;5.70;;
1204;SDS011;592;48.764;9.174;2023-05-07T00:35:57;6.30;;;4.93;;
1204;SDS011;592;48.764;9.174;2023-05-07T00:38:23;7.70;;;5.53;;
1204;SDS011;592;48.764;9.174;2023-05-07T00:40:51;6.60;;;4.70;;
1204;SDS011;592;48.764;9.174;2023-05-07T00:43:18;6.70;;;5.00;;
1204;SDS011;592;48.764;9.174;2023-05-07T00:45:45;7.53;;;4.70;;
1204;SDS011;592;48.764;9.174;2023-05-07T00:48:11;8.03;;;4.70;;
1204;SDS011;592;48.764;9.174;2023-05-07T00:50:39;7.90;;;4.70;;
1204;SDS011;592;48.764;9.174;2023-05-07T00:53:06;7.80;;;6.13;;
1204;SDS011;592;48.764;9.174;2023-05-07T00:55:32;7.43;;;6.30;;
1204;SDS011;592;48.764;9.174;2023-05-07T00:58:01;7.60;;;4.73;;
1204;SDS011;592;48.764;9.174;2023-05-07T01:00:28;6.93;;;4.97;;
1204;SDS011;592;48.764;9.174;2023-05-07T01:02:54;7.83;;;4.90;;
1204;SDS011;592;48.764;9.174;2023-05-07T01:05:21;7.73;;;4.97;;
1204;SDS011;592;48.764;9.174;2023-05-07T01:07:50;7.63;;;4.90;;
1204;SDS011;592;48.764;9.174;2023-05-07T01:10:19;7.23;;;5.70;;
1204;SDS011;592;48.764;9.174;2023-05-07T01:12:46;7.47;;;5.80;;
1204;SDS011;592;48.764;9.174;2023-05-07T01:15:15;8.17;;;5.80;;
1204;SDS011;592;48.764;9.174;2023-05-07T01:17:43;9.80;;;5.00;;
1204;SDS011;592;48.764;9.174;2023-05-07T01:20:10;10.73;;;5.50;;
1204;SDS011;592;48.764;9.174;2023-05-07T01:22:40;7.83;;;5.77;;
1204;SDS011;592;48.764;9.174;2023-05-07T01:25:07;8.67;;;5.53;;
1204;SDS011;592;48.764;9.174;2023-05-07T01:27:34;6.57;;;4.87;;
1204;SDS011;592;48.764;9.174;2023-05-07T01:30:02;8.30;;;5.90;;
1204;SDS011;592;48.764;9.174;2023-05-07T01:32:31;8.50;;;5.70;;
1204;SDS011;592;48.764;9.174;2023-05-07T01:35:11;8.70;;;5.50;;
1204;SDS011;592;48.764;9.174;2023-05-07T01:37:43;9.47;;;6.03;;
1204;SDS011;592;48.764;9.174;2023-05-07T01:40:10;9.03;;;5.67;;
1204;SDS011;592;48.764;9.174;2023-05-07T01:42:37;8.73;;;5.97;;
1204;SDS011;592;48.764;9.174;2023-05-07T01:45:05;7.57;;;5.30;;
1204;SDS011;592;48.764;9.174;2023-05-07T01:47:32;8.33;;;6.03;;
1204;SDS011;592;48.764;9.174;2023-05-07T01:50:00;7.53;;;5.50;;
1204;SDS011;592;48.764;9.174;2023-05-07T01:52:27;8.87;;;5.80;;
1204;SDS011;592;48.764;9.174;2023-05-07T01:54:55;9.27;;;6.00;;
1204;SDS011;592;48.764;9.174;2023-05-07T01:57:22;9.57;;;5.20;;
1204;SDS011;592;48.764;9.174;2023-05-07T01:59:48;11.43;;;6.07;;
1204;SDS011;592;48.764;9.174;2023-05-07T02:02:15;10.53;;;6.27;;
1204;SDS011;592;48.764;9.174;2023-05-07T02:04:42;8.37;;;6.30;;
1204;SDS011;592;48.764;9.174;2023-05-07T02:07:08;8.03;;;6.30;;
1204;SDS011;592;48.764;9.174;2023-05-07T02:09:35;8.93;;;6.00;;
1204;SDS011;592;48.764;9.174;2023-05-07T02:12:04;9.20;;;6.27;;
1204;SDS011;592;48.764;9.174;2023-05-07T02:14:30;9.00;;;6.23;;
1204;SDS011;592;48.764;9.174;2023-05-07T02:16:57;8.83;;;6.80;;
1204;SDS011;592;48.764;9.174;2023-05-07T02:19:24;14.20;;;5.90;;
1204;SDS011;592;48.764;9.174;2023-05-07T02:21:50;7.33;;;5.40;;
1204;SDS011;592;48.764;9.174;2023-05-07T02:24:18;8.87;;;5.53;;
1204;SDS011;592;48.764;9.174;2023-05-07T02:26:44;8.00;;;5.93;;
1204;SDS011;592;48.764;9.174;2023-05-07T02:29:12;7.83;;;5.70;;
1204;SDS011;592;48.764;9.174;2023-05-07T02:31:39;7.77;;;5.50;;
1204;SDS011;592;48.764;9.174;2023-05-07T02:34:06;9.03;;;5.47;;
1204;SDS011;592;48.764;9.174;2023-05-07T02:36:32;7.13;;;5.30;;
1204;SDS011;592;48.764;9.174;2023-05-07T02:38:59;8.47;;;5.60;;
1204;SDS011;592;48.764;9.174;2023-05-07T02:41:27;10.60;;;6.10;;
1204;SDS011;592;48.764;9.174;2023-05-07T02:43:54;8.17;;;5.70;;
1204;SDS011;592;48.764;9.174;2023-05-07T02:46:22;9.40;;;6.30;;
1204;SDS011;592;48.764;9.174;2023-05-07T02:48:48;9.40;;;6.27;;
1204;SDS011;592;48.764;9.174;2023-05-07T02:51:16;11.63;;;6.80;;
1204;SDS011;592;48.764;9.174;2023-05-07T02:53:43;7.93;;;5.03;;
1204;SDS011;592;48.764;9.174;2023-05-07T02:56:11;9.60;;;5.90;;
1204;SDS011;592;48.764;9.174;2023-05-07T02:58:37;12.30;;;6.10;;
1204;SDS011;592;48.764;9.174;2023-05-07T03:01:04;8.30;;;5.90;;
1204;SDS011;592;48.764;9.174;2023-05-07T03:03:33;9.77;;;6.57;;
1204;SDS011;592;48.764;9.174;2023-05-07T03:06:00;7.70;;;6.13;;
1204;SDS011;592;48.764;9.174;2023-05-07T03:08:27;8.90;;;6.10;;
1204;SDS011;592;48.764;9.174;2023-05-07T03:10:53;7.13;;;5.47;;
1204;SDS011;592;48.764;9.174;2023-05-07T03:13:20;7.97;;;5.43;;
1204;SDS011;592;48.764;9.174;2023-05-07T03:15:47;7.90;;;5.47;;
1204;SDS011;592;48.764;9.174;2023-05-07T03:18:13;7.50;;;5.50;;
1204;SDS011;592;48.764;9.174;2023-05-07T03:20:41;10.47;;;5.50;;
1204;SDS011;592;48.764;9.174;2023-05-07T03:23:08;7.23;;;5.77;;
1204;SDS011;592;48.764;9.174;2023-05-07T03:25:35;7.87;;;5.30;;
1204;SDS011;592;48.764;9.174;2023-05-07T03:28:01;7.73;;;5.40;;
1204;SDS011;592;48.764;9.174;2023-05-07T03:30:28;9.20;;;6.10;;
1204;SDS011;592;48.764;9.174;2023-05-07T03:32:55;7.80;;;5.20;;
1204;SDS011;592;48.764;9.174;2023-05-07T03:35:21;9.00;;;5.93;;
1204;SDS011;592;48.764;9.174;2023-05-07T03:37:49;8.37;;;5.50;;
1204;SDS011;592;48.764;9.174;2023-05-07T03:40:16;7.47;;;5.73;;
1204;SDS011;592;48.764;9.174;2023-05-07T03:42:43;7.73;;;5.17;;
1204;SDS011;592;48.764;9.174;2023-05-07T03:45:10;8.73;;;6.27;;
1204;SDS011;592;48.764;9.174;2023-05-07T03:47:36;7.17;;;5.50;;
1204;SDS011;592;48.764;9.174;2023-05-07T03:50:03;8.30;;;5.63;;
1204;SDS011;592;48.764;9.174;2023-05-07T03:52:31;9.57;;;6.03;;
1204;SDS011;592;48.764;9.174;2023-05-07T03:54:59;8.80;;;5.90;;
1204;SDS011;592;48.764;9.174;2023-05-07T03:57:26;9.47;;;6.30;;
1204;SDS011;592;48.764;9.174;2023-05-07T03:59:53;7.40;;;5.53;;
1204;SDS011;592;48.764;9.174;2023-05-07T04:02:20;9.20;;;5.87;;
1204;SDS011;592;48.764;9.174;2023-05-07T04:04:48;9.03;;;5.60;;
1204;SDS011;592;48.764;9.174;2023-05-07T04:07:14;7.70;;;5.70;;
1204;SDS011;592;48.764;9.174;2023-05-07T04:09:41;8.40;;;5.57;;
1204;SDS011;592;48.764;9.174;2023-05-07T04:12:09;7.50;;;5.50;;
1204;SDS011;592;48.764;9.174;2023-05-07T04:14:36;10.13;;;5.80;;
1204;SDS011;592;48.764;9.174;2023-05-07T04:17:02;7.90;;;5.50;;
1204;SDS011;592;48.764;9.174;2023-05-07T04:19:32;10.03;;;5.70;;
1204;SDS011;592;48.764;9.174;2023-05-07T04:21:59;7.60;;;5.20;;
1204;SDS011;592;48.764;9.174;2023-05-07T04:24:26;7.07;;;5.23;;
1204;SDS011;592;48.764;9.174;2023-05-07T04:26:53;8.70;;;5.40;;
1204;SDS011;592;48.764;9.174;2023-05-07T04:29:21;8.27;;;5.30;;
1204;SDS011;592;48.764;9.174;2023-05-07T04:31:48;7.80;;;5.80;;
1204;SDS011;592;48.764;9.174;2023-05-07T04:34:14;8.27;;;5.53;;
1204;SDS011;592;48.764;9.174;2023-05-07T04:36:41;7.40;;;5.30;;
1204;SDS011;592;48.764;9.174;2023-05-07T04:39:08;9.33;;;5.10;;
1204;SDS011;592;48.764;9.174;2023-05-07T04:41:35;7.43;;;5.27;;
1204;SDS011;592;48.764;9.174;2023-05-07T04:44:02;8.40;;;5.13;;
1204;SDS011;592;48.764;9.174;2023-05-07T04:46:32;7.20;;;4.43;;
1204;SDS011;592;48.764;9.174;2023-05-07T04:48:58;7.50;;;5.33;;
1204;SDS011;592;48.764;9.174;2023-05-07T04:51:25;7.93;;;4.90;;
1204;SDS011;592;48.764;9.174;2023-05-07T04:53:53;6.40;;;4.80;;
1204;SDS011;592;48.764;9.174;2023-05-07T04:56:19;6.50;;;4.60;;
1204;SDS011;592;48.764;9.174;2023-05-07T04:58:46;6.70;;;4.77;;
1204;SDS011;592;48.764;9.174;2023-05-07T05:01:13;7.50;;;5.17;;
1204;SDS011;592;48.764;9.174;2023-05-07T05:03:41;8.53;;;5.70;;
1204;SDS011;592;48.764;9.174;2023-05-07T05:06:08;7.20;;;5.33;;
1204;SDS011;592;48.764;9.174;2023-05-07T05:08:34;9.10;;;5.20;;
1204;SDS011;592;48.764;9.174;2023-05-07T05:11:01;7.70;;;5.10;;
1204;SDS011;592;48.764;9.174;2023-05-07T05:13:28;6.73;;;4.77;;
1204;SDS011;592;48.764;9.174;2023-05-07T05:15:55;6.67;;;5.00;;
1204;SDS011;592;48.764;9.174;2023-05-07T05:18:22;7.17;;;5.70;;
1204;SDS011;592;48.764;9.174;2023-05-07T05:20:50;6.87;;;4.60;;
1204;SDS011;592;48.764;9.174;2023-05-07T05:23:17;16.30;;;5.30;;
1204;SDS011;592;48.764;9.174;2023-05-07T05:25:44;9.37;;;5.13;;
1204;SDS011;592;48.764;9.174;2023-05-07T05:28:10;7.10;;;4.90;;
1204;SDS011;592;48.764;9.174;2023-05-07T05:30:38;7.00;;;5.27;;
1204;SDS011;592;48.764;9.174;2023-05-07T05:33:05;8.20;;;5.10;;
1204;SDS011;592;48.764;9.174;2023-05-07T05:35:31;7.20;;;4.93;;
1204;SDS011;592;48.764;9.174;2023-05-07T05:38:01;6.83;;;4.43;;
1204;SDS011;592;48.764;9.174;2023-05-07T05:40:28;7.90;;;5.03;;
1204;SDS011;592;48.764;9.174;2023-05-07T05:42:55;6.50;;;4.80;;
1204;SDS011;592;48.764;9.174;2023-05-07T05:45:22;6.93;;;5.17;;
1204;SDS011;592;48.764;9.174;2023-05-07T05:47:48;9.67;;;5.93;;
1204;SDS011;592;48.764;9.174;2023-05-07T05:50:15;6.73;;;5.37;;
1204;SDS011;592;48.764;9.174;2023-05-07T05:52:42;7.07;;;4.90;;
1204;SDS011;592;48.764;9.174;2023-05-07T05:55:10;8.00;;;5.40;;
1204;SDS011;592;48.764;9.174;2023-05-07T05:57:36;7.70;;;5.33;;
1204;SDS011;592;48.764;9.174;2023-05-07T06:00:04;6.33;;;4.80;;
1204;SDS011;592;48.764;9.174;2023-05-07T06:02:31;6.83;;;5.20;;
1204;SDS011;592;48.764;9.174;2023-05-07T06:04:58;7.57;;;5.17;;
1204;SDS011;592;48.764;9.174;2023-05-07T06:07:25;7.17;;;4.90;;
1204;SDS011;592;48.764;9.174;2023-05-07T06:09:52;7.10;;;5.67;;
1204;SDS011;592;48.764;9.174;2023-05-07T06:12:20;6.77;;;5.63;;
1204;SDS011;592;48.764;9.174;2023-05-07T06:14:47;9.63;;;5.90;;
1204;SDS011;592;48.764;9.174;2023-05-07T06:17:13;6.87;;;5.07;;
1204;SDS011;592;48.764;9.174;2023-05-07T06:19:40;9.00;;;5.33;;
1204;SDS011;592;48.764;9.174;2023-05-07T06:22:07;6.87;;;4.80;;
1204;SDS011;592;48.764;9.174;2023-05-07T06:24:33;8.57;;;5.43;;
1204;SDS011;592;48.764;9.174;2023-05-07T06:27:00;7.57;;;5.80;;
1204;SDS011;592;48.764;9.174;2023-05-07T06:29:28;8.80;;;5.60;;
1204;SDS011;592;48.764;9.174;2023-05-07T06:32:05;8.50;;;6.40;;
1204;SDS011;592;48.764;9.174;2023-05-07T06:34:32;7.87;;;5.50;;
1204;SDS011;592;48.764;9.174;2023-05-07T06:36:59;7.50;;;5.87;;
1204;SDS011;592;48.764;9.174;2023-05-07T06:39:25;10.90;;;5.40;;
1204;SDS011;592;48.764;9.174;2023-05-07T06:41:52;8.40;;;6.10;;
1204;SDS011;592;48.764;9.174;2023-05-07T06:44:19;10.07;;;5.70;;
1204;SDS011;592;48.764;9.174;2023-05-07T06:46:47;9.27;;;6.10;;
1204;SDS011;592;48.764;9.174;2023-05-07T06:49:14;8.00;;;6.60;;
1204;SDS011;592;48.764;9.174;2023-05-07T06:51:41;9.47;;;6.40;;
1204;SDS011;592;48.764;9.174;2023-05-07T06:54:07;9.60;;;6.87;;
1204;SDS011;592;48.764;9.174;2023-05-07T06:56:34;10.30;;;7.53;;
1204;SDS011;592;48.764;9.174;2023-05-07T06:59:01;10.43;;;7.80;;
1204;SDS011;592;48.764;9.174;2023-05-07T07:01:28;8.97;;;7.13;;
1204;SDS011;592;48.764;9.174;2023-05-07T07:03:56;11.17;;;7.80;;
1204;SDS011;592;48.764;9.174;2023-05-07T07:06:23;8.63;;;7.23;;
1204;SDS011;592;48.764;9.174;2023-05-07T07:08:50;9.50;;;7.43;;
1204;SDS011;592;48.764;9.174;2023-05-07T07:11:17;12.10;;;7.40;;
1204;SDS011;592;48.764;9.174;2023-05-07T07:13:43;12.83;;;8.00;;
1204;SDS011;592;48.764;9.174;2023-05-07T07:16:10;14.17;;;8.60;;
1204;SDS011;592;48.764;9.174;2023-05-07T07:18:37;9.90;;;7.83;;
1204;SDS011;592;48.764;9.174;2023-05-07T07:21:06;8.90;;;8.00;;
1204;SDS011;592;48.764;9.174;2023-05-07T07:23:32;10.43;;;7.60;;
1204;SDS011;592;48.764;9.174;2023-05-07T07:25:59;9.70;;;7.10;;
1204;SDS011;592;48.764;9.174;2023-05-07T07:28:26;8.47;;;7.33;;
1204;SDS011;592;48.764;9.174;2023-05-07T07:30:52;10.30;;;6.70;;
1204;SDS011;592;48.764;9.174;2023-05-07T07:33:19;9.60;;;6.90;;
1204;SDS011;592;48.764;9.174;2023-05-07T07:35:46;10.43;;;7.00;;
1204;SDS011;592;48.764;9.174;2023-05-07T07:38:14;9.03;;;6.87;;
1204;SDS011;592;48.764;9.174;2023-05-07T07:40:40;8.80;;;7.00;;
1204;SDS011;592;48.764;9.174;2023-05-07T07:43:08;9.70;;;7.00;;
1204;SDS011;592;48.764;9.174;2023-05-07T07:45:35;9.37;;;7.43;;
1204;SDS011;592;48.764;9.174;2023-05-07T07:48:02;10.03;;;7.23;;
1204;SDS011;592;48.764;9.174;2023-05-07T07:50:29;9.30;;;6.90;;
1204;SDS011;592;48.764;9.174;2023-05-07T07:52:56;8.73;;;6.53;;
1204;SDS011;592;48.764;9.174;2023-05-07T07:55:24;9.00;;;6.40;;
1204;SDS011;592;48.764;9.174;2023-05-07T07:57:52;9.57;;;6.70;;
1204;SDS011;592;48.764;9.174;2023-05-07T08:00:18;7.20;;;6.30;;
1204;SDS011;592;48.764;9.174;2023-05-07T08:02:46;9.00;;;6.40;;
1204;SDS011;592;48.764;9.174;2023-05-07T08:05:12;6.40;;;5.60;;
1204;SDS011;592;48.764;9.174;2023-05-07T08:07:40;9.03;;;6.27;;
1204;SDS011;592;48.764;9.174;2023-05-07T08:10:07;7.00;;;5.30;;
1204;SDS011;592;48.764;9.174;2023-05-07T08:12:35;6.50;;;5.30;;
1204;SDS011;592;48.764;9.174;2023-05-07T08:15:02;7.73;;;5.10;;
1204;SDS011;592;48.764;9.174;2023-05-07T08:17:29;6.27;;;5.00;;
1204;SDS011;592;48.764;9.174;2023-05-07T08:19:56;8.37;;;5.00;;
1204;SDS011;592;48.764;9.174;2023-05-07T08:22:23;6.40;;;4.50;;
1204;SDS011;592;48.764;9.174;2023-05-07T08:24:49;5.60;;;4.40;;
1204;SDS011;592;48.764;9.174;2023-05-07T08:27:18;6.00;;;4.40;;
1204;SDS011;592;48.764;9.174;2023-05-07T08:29:46;7.07;;;4.70;;
1204;SDS011;592;48.764;9.174;2023-05-07T08:32:13;5.53;;;4.10;;
1204;SDS011;592;48.764;9.174;2023-05-07T08:34:40;7.40;;;5.67;;
1204;SDS011;592;48.764;9.174;2023-05-07T08:37:07;7.23;;;4.83;;
1204;SDS011;592;48.764;9.174;2023-05-07T08:39:33;9.53;;;5.80;;
1204;SDS011;592;48.764;9.174;2023-05-07T08:42:00;9.27;;;5.03;;
1204;SDS011;592;48.764;9.174;2023-05-07T08:44:30;5.57;;;4.47;;
1204;SDS011;592;48.764;9.174;2023-05-07T08:47:01;8.97;;;5.67;;
1204;SDS011;592;48.764;9.174;2023-05-07T08:49:28;6.17;;;4.50;;
1204;SDS011;592;48.764;9.174;2023-05-07T08:51:55;5.50;;;4.30;;
1204;SDS011;592;48.764;9.174;2023-05-07T08:54:22;6.57;;;5.10;;
1204;SDS011;592;48.764;9.174;2023-05-07T08:56:49;8.50;;;4.83;;
1204;SDS011;592;48.764;9.174;2023-05-07T08:59:16;6.47;;;4.73;;
1204;SDS011;592;48.764;9.174;2023-05-07T09:01:42;6.10;;;4.50;;
1204;SDS011;592;48.764;9.174;2023-05-07T09:04:11;7.63;;;4.50;;
1204;SDS011;592;48.764;9.174;2023-05-07T09:06:38;6.00;;;4.50;;
1204;SDS011;592;48.764;9.174;2023-05-07T09:09:07;7.37;;;4.40;;
1204;SDS011;592;48.764;9.174;2023-05-07T09:11:34;6.07;;;4.23;;
1204;SDS011;592;48.764;9.174;2023-05-07T09:14:00;5.30;;;4.00;;
1204;SDS011;592;48.764;9.174;2023-05-07T09:16:28;5.73;;;4.20;;
1204;SDS011;592;48.764;9.174;2023-05-07T09:18:56;5.67;;;4.30;;
1204;SDS011;592;48.764;9.174;2023-05-07T09:21:25;8.77;;;4.10;;
1204;SDS011;592;48.764;9.174;2023-05-07T09:23:53;6.20;;;4.00;;
1204;SDS011;592;48.764;9.174;2023-05-07T09:26:21;7.20;;;4.40;;
1204;SDS011;592;48.764;9.174;2023-05-07T09:28:48;5.30;;;4.00;;
1204;SDS011;592;48.764;9.174;2023-05-07T09:31:14;5.43;;;3.90;;
1204;SDS011;592;48.764;9.174;2023-05-07T09:33:41;7.33;;;4.17;;
1204;SDS011;592;48.764;9.174;2023-05-07T09:36:08;6.40;;;3.97;;
1204;SDS011;592;48.764;9.174;2023-05-07T09:38:37;5.70;;;3.70;;
1204;SDS011;592;48.764;9.174;2023-05-07T09:41:04;7.00;;;3.60;;
1204;SDS011;592;48.764;9.174;2023-05-07T09:43:32;6.33;;;3.70;;
1204;SDS011;592;48.764;9.174;2023-05-07T09:46:01;4.97;;;3.57;;
1204;SDS011;592;48.764;9.174;2023-05-07T09:48:29;5.60;;;3.57;;
1204;SDS011;592;48.764;9.174;2023-05-07T09:50:56;6.77;;;3.93;;
1204;SDS011;592;48.764;9.174;2023-05-07T09:53:26;5.40;;;4.00;;
1204;SDS011;592;48.764;9.174;2023-05-07T09:55:56;6.70;;;4.20;;
1204;SDS011;592;48.764;9.174;2023-05-07T09:58:25;5.33;;;3.60;;
1204;SDS011;592;48.764;9.174;2023-05-07T10:00:52;5.70;;;4.00;;
1204;SDS011;592;48.764;9.174;2023-05-07T10:03:19;4.57;;;3.83;;
1204;SDS011;592;48.764;9.174;2023-05-07T10:05:47;4.90;;;3.60;;
1204;SDS011;592;48.764;9.174;2023-05-07T10:08:15;5.17;;;4.10;;
1204;SDS011;592;48.764;9.174;2023-05-07T10:10:42;6.00;;;4.27;;
1204;SDS011;592;48.764;9.174;2023-05-07T10:13:10;8.87;;;4.40;;
1204;SDS011;592;48.764;9.174;2023-05-07T10:15:38;4.60;;;3.67;;
1204;SDS011;592;48.764;9.174;2023-05-07T10:18:05;5.07;;;3.70;;
1204;SDS011;592;48.764;9.174;2023-05-07T10:20:32;4.80;;;3.37;;
1204;SDS011;592;48.764;9.174;2023-05-07T10:23:00;5.37;;;4.40;;
1204;SDS011;592;48.764;9.174;2023-05-07T10:25:31;6.00;;;3.87;;
1204;SDS011;592;48.764;9.174;2023-05-07T10:27:59;8.30;;;4.40;;
1204;SDS011;592;48.764;9.174;2023-05-07T10:30:34;5.60;;;3.97;;
1204;SDS011;592;48.764;9.174;2023-05-07T10:33:10;4.50;;;3.77;;
1204;SDS011;592;48.764;9.174;2023-05-07T10:35:40;7.27;;;3.90;;
1204;SDS011;592;48.764;9.174;2023-05-07T10:38:09;5.70;;;4.27;;
1204;SDS011;592;48.764;9.174;2023-05-07T10:40:36;6.33;;;4.23;;
1204;SDS011;592;48.764;9.174;2023-05-07T10:43:04;5.70;;;4.00;;
1204;SDS011;592;48.764;9.174;2023-05-07T10:45:31;6.03;;;4.20;;
1204;SDS011;592;48.764;9.174;2023-05-07T10:48:10;5.57;;;4.10;;
1204;SDS011;592;48.764;9.174;2023-05-07T10:50:38;8.00;;;4.20;;
1204;SDS011;592;48.764;9.174;2023-05-07T10:53:21;7.77;;;4.43;;
1204;SDS011;592;48.764;9.174;2023-05-07T10:58:50;7.50;;;4.07;;
1204;SDS011;592;48.764;9.174;2023-05-07T11:01:17;6.83;;;4.13;;
1204;SDS011;592;48.764;9.174;2023-05-07T11:04:17;7.13;;;4.20;;
1204;SDS011;592;48.764;9.174;2023-05-07T11:12:47;6.53;;;4.43;;
1204;SDS011;592;48.764;9.174;2023-05-07T11:15:36;5.93;;;4.30;;
1204;SDS011;592;48.764;9.174;2023-05-07T11:18:04;5.80;;;4.33;;
1204;SDS011;592;48.764;9.174;2023-05-07T11:26:43;6.27;;;4.07;;
1204;SDS011;592;48.764;9.174;2023-05-07T11:29:12;6.63;;;4.10;;
1204;SDS011;592;48.764;9.174;2023-05-07T11:31:40;6.43;;;3.43;;
1204;SDS011;592;48.764;9.174;2023-05-07T11:34:08;10.03;;;4.70;;
1204;SDS011;592;48.764;9.174;2023-05-07T11:36:41;5.40;;;3.80;;
1204;SDS011;592;48.764;9.174;2023-05-07T11:39:28;5.07;;;3.50;;
1204;SDS011;592;48.764;9.174;2023-05-07T11:41:56;7.37;;;3.93;;
1204;SDS011;592;48.764;9.174;2023-05-07T11:44:23;5.10;;;3.50;;
1204;SDS011;592;48.764;9.174;2023-05-07T11:46:50;6.60;;;3.80;;
1204;SDS011;592;48.764;9.174;2023-05-07T11:49:17;4.87;;;4.10;;
1204;SDS011;592;48.764;9.174;2023-05-07T11:51:45;8.00;;;3.60;;
1204;SDS011;592;48.764;9.174;2023-05-07T11:54:14;7.23;;;4.17;;
1204;SDS011;592;48.764;9.174;2023-05-07T11:56:42;6.10;;;3.67;;
1204;SDS011;592;48.764;9.174;2023-05-07T11:59:11;6.20;;;3.60;;
1204;SDS011;592;48.764;9.174;2023-05-07T12:01:37;6.50;;;4.10;;
1204;SDS011;592;48.764;9.174;2023-05-07T12:04:04;5.10;;;3.93;;
1204;SDS011;592;48.764;9.174;2023-05-07T12:06:35;6.00;;;4.70;;
1204;SDS011;592;48.764;9.174;2023-05-07T12:09:04;6.23;;;4.27;;
1204;SDS011;592;48.764;9.174;2023-05-07T12:11:32;7.83;;;4.17;;
1204;SDS011;592;48.764;9.174;2023-05-07T12:13:58;6.67;;;4.50;;
1204;SDS011;592;48.764;9.174;2023-05-07T12:16:25;7.33;;;4.63;;
1204;SDS011;592;48.764;9.174;2023-05-07T12:18:52;5.80;;;3.30;;
1204;SDS011;592;48.764;9.174;2023-05-07T12:21:20;3.63;;;1.50;;
1204;SDS011;592;48.764;9.174;2023-05-07T12:23:46;4.20;;;2.03;;
1204;SDS011;592;48.764;9.174;2023-05-07T12:26:15;5.60;;;3.33;;
1204;SDS011;592;48.764;9.174;2023-05-07T12:28:42;9.07;;;5.57;;
1204;SDS011;592;48.764;9.174;2023-05-07T12:31:08;13.40;;;4.50;;
1204;SDS011;592;48.764;9.174;2023-05-07T12:33:35;13.97;;;4.20;;
1204;SDS011;592;48.764;9.174;2023-05-07T12:36:03;13.77;;;4.97;;
1204;SDS011;592;48.764;9.174;2023-05-07T12:38:36;16.07;;;5.37;;
1204;SDS011;592;48.764;9.174;2023-05-07T12:41:04;16.43;;;6.60;;
1204;SDS011;592;48.764;9.174;2023-05-07T12:43:33;46.67;;;4.77;;
1204;SDS011;592;48.764;9.174;2023-05-07T12:46:00;13.53;;;3.47;;
1204;SDS011;592;48.764;9.174;2023-05-07T12:48:29;20.27;;;6.00;;
1204;SDS011;592;48.764;9.174;2023-05-07T12:50:56;10.00;;;3.80;;
1204;SDS011;592;48.764;9.174;2023-05-07T12:53:24;15.83;;;7.10;;
1204;SDS011;592;48.764;9.174;2023-05-07T12:55:51;21.30;;;8.40;;
1204;SDS011;592;48.764;9.174;2023-05-07T12:58:19;6.00;;;2.87;;
1204;SDS011;592;48.764;9.174;2023-05-07T13:00:49;5.67;;;2.30;;
1204;SDS011;592;48.764;9.174;2023-05-07T13:03:23;7.17;;;3.20;;
1204;SDS011;592;48.764;9.174;2023-05-07T13:05:51;4.30;;;2.50;;
1204;SDS011;592;48.764;9.174;2023-05-07T13:08:24;11.83;;;3.77;;
1204;SDS011;592;48.764;9.174;2023-05-07T13:10:52;6.23;;;3.60;;
1204;SDS011;592;48.764;9.174;2023-05-07T13:13:19;5.63;;;2.90;;
1204;SDS011;592;48.764;9.174;2023-05-07T13:15:46;6.47;;;3.70;;
1204;SDS011;592;48.764;9.174;2023-05-07T13:18:14;5.60;;;3.70;;
1204;SDS011;592;48.764;9.174;2023-05-07T13:20:41;6.40;;;4.10;;
1204;SDS011;592;48.764;9.174;2023-05-07T13:23:07;11.07;;;4.60;;
1204;SDS011;592;48.764;9.174;2023-05-07T13:25:34;6.23;;;3.30;;
1204;SDS011;592;48.764;9.174;2023-05-07T13:28:01;9.40;;;4.00;;
1204;SDS011;592;48.764;9.174;2023-05-07T13:30:28;5.57;;;3.70;;
1204;SDS011;592;48.764;9.174;2023-05-07T13:32:55;5.17;;;3.50;;
1204;SDS011;592;48.764;9.174;2023-05-07T13:35:23;5.83;;;3.57;;
1204;SDS011;592;48.764;9.174;2023-05-07T13:37:50;4.60;;;3.30;;
1204;SDS011;592;48.764;9.174;2023-05-07T13:40:18;6.83;;;3.90;;
1204;SDS011;592;48.764;9.174;2023-05-07T13:42:44;5.00;;;3.43;;
1204;SDS011;592;48.764;9.174;2023-05-07T13:45:12;6.70;;;4.30;;
1204;SDS011;592;48.764;9.174;2023-05-07T13:47:39;6.00;;;3.90;;
1204;SDS011;592;48.764;9.174;2023-05-07T13:50:06;4.27;;;2.60;;
1204;SDS011;592;48.764;9.174;2023-05-07T13:52:35;5.47;;;3.20;;
1204;SDS011;592;48.764;9.174;2023-05-07T13:55:01;5.33;;;3.23;;
1204;SDS011;592;48.764;9.174;2023-05-07T13:57:28;6.67;;;3.20;;
1204;SDS011;592;48.764;9.174;2023-05-07T13:59:55;4.77;;;2.50;;
1204;SDS011;592;48.764;9.174;2023-05-07T14:02:22;3.40;;;2.17;;
1204;SDS011;592;48.764;9.174;2023-05-07T14:04:50;5.70;;;2.90;;
1204;SDS011;592;48.764;9.174;2023-05-07T14:07:17;6.70;;;3.47;;
1204;SDS011;592;48.764;9.174;2023-05-07T14:09:45;6.33;;;3.53;;
1204;SDS011;592;48.764;9.174;2023-05-07T14:12:12;6.67;;;3.87;;
1204;SDS011;592;48.764;9.174;2023-05-07T14:14:39;6.73;;;4.20;;
1204;SDS011;592;48.764;9.174;2023-05-07T14:17:06;6.23;;;4.23;;
1204;SDS011;592;48.764;9.174;2023-05-07T14:19:33;6.40;;;4.60;;
1204;SDS011;592;48.764;9.174;2023-05-07T14:22:00;6.27;;;4.40;;
1204;SDS011;592;48.764;9.174;2023-05-07T14:24:27;8.80;;;5.40;;
1204;SDS011;592;48.764;9.174;2023-05-07T14:26:55;7.20;;;4.63;;
1204;SDS011;592;48.764;9.174;2023-05-07T14:29:22;11.27;;;4.90;;
1204;SDS011;592;48.764;9.174;2023-05-07T14:31:49;8.90;;;4.90;;
1204;SDS011;592;48.764;9.174;2023-05-07T14:34:16;6.30;;;5.00;;
1204;SDS011;592;48.764;9.174;2023-05-07T14:36:43;6.03;;;4.07;;
1204;SDS011;592;48.764;9.174;2023-05-07T14:39:09;8.17;;;4.20;;
1204;SDS011;592;48.764;9.174;2023-05-07T14:41:36;7.97;;;4.77;;
1204;SDS011;592;48.764;9.174;2023-05-07T14:44:05;6.70;;;4.40;;
1204;SDS011;592;48.764;9.174;2023-05-07T14:46:31;6.57;;;4.10;;
1204;SDS011;592;48.764;9.174;2023-05-07T14:48:58;4.50;;;3.20;;
1204;SDS011;592;48.764;9.174;2023-05-07T14:51:25;9.77;;;4.00;;
1204;SDS011;592;48.764;9.174;2023-05-07T14:53:53;6.57;;;3.80;;
1204;SDS011;592;48.764;9.174;2023-05-07T14:56:20;5.03;;;3.63;;
1204;SDS011;592;48.764;9.174;2023-05-07T14:58:47;8.10;;;4.00;;
1204;SDS011;592;48.764;9.174;2023-05-07T15:01:16;12.80;;;5.10;;
1204;SDS011;592;48.764;9.174;2023-05-07T15:03:43;5.50;;;4.00;;
1204;SDS011;592;48.764;9.174;2023-05-07T15:06:10;4.67;;;3.40;;
1204;SDS011;592;48.764;9.174;2023-05-07T15:08:37;4.50;;;3.17;;
1204;SDS011;592;48.764;9.174;2023-05-07T15:11:04;5.40;;;2.90;;
1204;SDS011;592;48.764;9.174;2023-05-07T15:13:31;5.43;;;3.60;;
1204;SDS011;592;48.764;9.174;2023-05-07T15:15:58;7.27;;;3.40;;
1204;SDS011;592;48.764;9.174;2023-05-07T15:18:26;5.80;;;3.50;;
1204;SDS011;592;48.764;9.174;2023-05-07T15:20:54;9.13;;;5.43;;
1204;SDS011;592;48.764;9.174;2023-05-07T15:23:22;7.27;;;6.00;;
1204;SDS011;592;48.764;9.174;2023-05-07T15:25:48;6.33;;;5.43;;
1204;SDS011;592;48.764;9.174;2023-05-07T15:28:15;8.47;;;5.57;;
1204;SDS011;592;48.764;9.174;2023-05-07T15:30:42;7.50;;;5.10;;
1204;SDS011;592;48.764;9.174;2023-05-07T15:33:09;7.50;;;4.87;;
1204;SDS011;592;48.764;9.174;2023-05-07T15:35:38;7.53;;;5.50;;
1204;SDS011;592;48.764;9.174;2023-05-07T15:38:05;8.10;;;4.80;;
1204;SDS011;592;48.764;9.174;2023-05-07T15:40:33;8.73;;;5.60;;
1204;SDS011;592;48.764;9.174;2023-05-07T15:43:02;8.50;;;4.90;;
1204;SDS011;592;48.764;9.174;2023-05-07T15:45:29;6.53;;;5.17;;
1204;SDS011;592;48.764;9.174;2023-05-07T15:47:56;8.33;;;5.80;;